createdAt,value
2023-04-23T00:00:57.659Z,14.93
2023-04-23T00:03:33.300Z,14.92
2023-04-23T00:06:08.021Z,14.92
2023-04-23T00:08:41.760Z,14.84
2023-04-23T00:11:13.813Z,14.88
2023-04-23T00:13:47.336Z,14.87
2023-04-23T00:16:20.108Z,14.83
2023-04-23T00:18:51.623Z,14.83
2023-04-23T00:21:23.122Z,14.84
2023-04-23T00:23:54.706Z,14.86
2023-04-23T00:26:26.344Z,14.89
2023-04-23T00:28:57.876Z,14.93
2023-04-23T00:31:29.470Z,14.88
2023-04-23T00:34:01.046Z,14.91
2023-04-23T00:36:32.522Z,14.90
2023-04-23T00:39:04.160Z,14.87
2023-04-23T00:41:35.801Z,14.88
2023-04-23T00:44:07.515Z,14.89
2023-04-23T00:46:39.021Z,14.90
2023-04-23T00:49:11.173Z,14.87
2023-04-23T00:51:42.545Z,14.87
2023-04-23T00:54:14.343Z,14.86
2023-04-23T00:56:45.820Z,14.86
2023-04-23T00:59:17.699Z,14.84
2023-04-23T01:01:49.293Z,14.82
2023-04-23T01:04:22.953Z,14.77
2023-04-23T01:06:55.803Z,14.73
2023-04-23T01:09:32.568Z,14.68
2023-04-23T01:12:06.167Z,14.68
2023-04-23T01:14:38.706Z,14.67
2023-04-23T01:17:12.124Z,14.67
2023-04-23T01:19:43.699Z,14.67
2023-04-23T01:22:16.759Z,14.67
2023-04-23T01:24:49.356Z,14.69
2023-04-23T01:27:22.268Z,14.66
2023-04-23T01:29:53.959Z,14.61
2023-04-23T01:32:26.062Z,14.60
2023-04-23T01:34:58.196Z,14.61
2023-04-23T01:37:30.472Z,14.54
2023-04-23T01:40:02.195Z,14.48
2023-04-23T01:42:33.870Z,14.42
2023-04-23T01:45:07.959Z,14.45
2023-04-23T01:47:41.701Z,14.45
2023-04-23T01:50:13.941Z,14.47
2023-04-23T01:52:46.409Z,14.48
2023-04-23T01:55:19.289Z,14.47
2023-04-23T01:57:51.609Z,14.51
2023-04-23T02:00:23.405Z,14.49
2023-04-23T02:02:54.999Z,14.41
2023-04-23T02:05:28.846Z,14.34
2023-04-23T02:08:00.470Z,14.27
2023-04-23T02:10:32.107Z,14.22
2023-04-23T02:13:04.278Z,14.14
2023-04-23T02:15:38.157Z,14.10
2023-04-23T02:18:10.809Z,14.14
2023-04-23T02:20:42.346Z,14.16
2023-04-23T02:23:14.024Z,14.16
2023-04-23T02:25:46.011Z,14.18
2023-04-23T02:28:17.497Z,14.21
2023-04-23T02:30:49.010Z,14.22
2023-04-23T02:33:20.867Z,14.20
2023-04-23T02:35:52.403Z,14.06
2023-04-23T02:38:23.890Z,13.88
2023-04-23T02:40:55.501Z,13.88
2023-04-23T02:43:27.030Z,13.88
2023-04-23T02:45:58.521Z,13.92
2023-04-23T02:48:30.705Z,13.95
2023-04-23T02:51:03.208Z,13.92
2023-04-23T02:53:34.686Z,13.97
2023-04-23T02:56:07.255Z,14.00
2023-04-23T02:58:38.806Z,14.02
2023-04-23T03:01:10.350Z,14.01
2023-04-23T03:03:42.046Z,14.01
2023-04-23T03:06:13.971Z,14.03
2023-04-23T03:08:46.014Z,14.04
2023-04-23T03:11:17.570Z,14.03
2023-04-23T03:13:49.304Z,13.96
2023-04-23T03:16:20.879Z,13.95
2023-04-23T03:18:52.442Z,13.85
2023-04-23T03:21:24.180Z,13.88
2023-04-23T03:23:56.312Z,13.82
2023-04-23T03:26:27.868Z,13.83
2023-04-23T03:28:59.752Z,13.83
2023-04-23T03:31:31.274Z,13.86
2023-04-23T03:34:03.156Z,13.80
2023-04-23T03:36:34.676Z,13.83
2023-04-23T03:39:06.173Z,13.82
2023-04-23T03:41:37.703Z,13.84
2023-04-23T03:44:09.287Z,13.85
2023-04-23T03:46:40.826Z,13.83
2023-04-23T03:49:12.318Z,13.81
2023-04-23T03:51:43.837Z,13.76
2023-04-23T03:54:15.377Z,13.76
2023-04-23T03:56:46.989Z,13.68
2023-04-23T03:59:18.440Z,13.70
2023-04-23T04:01:50.127Z,13.52
2023-04-23T04:04:21.816Z,13.55
2023-04-23T04:06:55.432Z,13.45
2023-04-23T04:09:27.421Z,13.45
2023-04-23T04:11:58.962Z,13.46
2023-04-23T04:14:31.554Z,13.14
2023-04-23T04:17:03.114Z,13.12
2023-04-23T04:19:34.862Z,12.90
2023-04-23T04:22:07.055Z,12.69
2023-04-23T04:24:38.598Z,12.50
2023-04-23T04:27:10.080Z,12.25
2023-04-23T04:29:41.562Z,12.17
2023-04-23T04:32:13.749Z,12.07
2023-04-23T04:34:45.584Z,12.07
2023-04-23T04:37:17.090Z,12.05
2023-04-23T04:39:48.658Z,11.97
2023-04-23T04:42:20.235Z,12.03
2023-04-23T04:44:52.968Z,11.96
2023-04-23T04:47:24.448Z,12.00
2023-04-23T04:49:57.741Z,12.01
2023-04-23T04:52:29.274Z,11.99
2023-04-23T04:55:00.793Z,11.97
2023-04-23T04:57:32.267Z,11.96
2023-04-23T05:00:23.461Z,12.03
2023-04-23T05:02:58.769Z,12.11
2023-04-23T05:05:30.428Z,12.22
2023-04-23T05:08:04.838Z,12.18
2023-04-23T05:10:36.821Z,12.17
2023-04-23T05:13:08.332Z,12.13
2023-04-23T05:15:39.885Z,12.18
2023-04-23T05:18:11.340Z,12.07
2023-04-23T05:20:43.049Z,11.98
2023-04-23T05:23:14.660Z,12.10
2023-04-23T05:25:46.206Z,11.94
2023-04-23T05:28:17.857Z,11.84
2023-04-23T05:30:50.234Z,11.87
2023-04-23T05:33:21.981Z,11.77
2023-04-23T05:35:54.707Z,11.68
2023-04-23T05:38:26.362Z,11.62
2023-04-23T05:40:58.864Z,11.49
2023-04-23T05:43:30.427Z,11.43
2023-04-23T05:46:04.512Z,11.44
2023-04-23T05:48:36.025Z,11.41
2023-04-23T05:51:07.883Z,11.49
2023-04-23T05:53:39.410Z,11.42
2023-04-23T05:56:10.971Z,11.30
2023-04-23T05:58:42.472Z,11.36
2023-04-23T06:01:14.018Z,11.23
2023-04-23T06:03:45.742Z,11.24
2023-04-23T06:06:17.459Z,11.20
2023-04-23T06:08:50.928Z,11.31
2023-04-23T06:11:22.526Z,11.35
2023-04-23T06:13:53.971Z,11.40
2023-04-23T06:16:25.820Z,11.48
2023-04-23T06:18:57.653Z,11.58
2023-04-23T06:21:29.166Z,11.65
2023-04-23T06:24:00.667Z,11.75
2023-04-23T06:26:33.228Z,11.86
2023-04-23T06:29:04.814Z,11.93
2023-04-23T06:31:36.465Z,12.02
2023-04-23T06:34:07.976Z,12.12
2023-04-23T06:36:39.515Z,12.15
2023-04-23T06:39:11.003Z,11.99
2023-04-23T06:41:42.518Z,11.98
2023-04-23T06:44:14.166Z,11.89
2023-04-23T06:46:45.883Z,11.99
2023-04-23T06:49:17.942Z,12.06
2023-04-23T06:51:49.480Z,12.16
2023-04-23T06:54:21.014Z,12.24
2023-04-23T06:56:52.604Z,12.35
2023-04-23T06:59:24.138Z,12.46
2023-04-23T07:01:55.627Z,12.57
2023-04-23T07:04:27.169Z,12.67
2023-04-23T07:06:58.808Z,12.69
2023-04-23T07:09:30.904Z,12.85
2023-04-23T07:12:03.302Z,12.94
2023-04-23T07:14:34.836Z,13.03
2023-04-23T07:17:06.407Z,13.10
2023-04-23T07:19:38.388Z,13.16
2023-04-23T07:22:09.856Z,13.19
2023-04-23T07:24:41.888Z,13.24
2023-04-23T07:27:13.424Z,13.27
2023-04-23T07:29:44.945Z,13.24
2023-04-23T07:32:16.664Z,13.25
2023-04-23T07:34:48.272Z,13.21
2023-04-23T07:37:21.599Z,13.15
2023-04-23T07:39:54.029Z,13.12
2023-04-23T07:42:25.667Z,13.10
2023-04-23T07:44:57.351Z,13.09
2023-04-23T07:47:28.864Z,13.12
2023-04-23T07:50:00.523Z,13.12
2023-04-23T07:52:32.048Z,13.09
2023-04-23T07:55:03.771Z,12.82
2023-04-23T07:57:35.285Z,12.60
2023-04-23T08:00:09.480Z,12.69
2023-04-23T08:02:41.260Z,12.75
2023-04-23T08:05:13.083Z,12.82
2023-04-23T08:07:44.632Z,12.87
2023-04-23T08:10:16.252Z,12.98
2023-04-23T08:12:47.803Z,13.07
2023-04-23T08:15:19.280Z,13.17
2023-04-23T08:17:51.084Z,13.22
2023-04-23T08:20:22.696Z,13.36
2023-04-23T08:22:54.496Z,13.54
2023-04-23T08:25:26.098Z,13.73
2023-04-23T08:27:57.627Z,13.90
2023-04-23T08:30:29.162Z,14.07
2023-04-23T08:33:00.765Z,14.24
2023-04-23T08:35:32.296Z,14.32
2023-04-23T08:38:03.864Z,14.42
2023-04-23T08:40:37.676Z,14.52
2023-04-23T08:43:19.282Z,14.60
2023-04-23T08:45:50.908Z,14.53
2023-04-23T08:48:22.616Z,14.45
2023-04-23T08:50:54.205Z,14.54
2023-04-23T08:53:29.821Z,14.63
2023-04-23T08:56:03.427Z,14.36
2023-04-23T08:58:36.106Z,14.67
2023-04-23T09:01:07.994Z,14.84
2023-04-23T09:03:40.817Z,15.04
2023-04-23T09:06:12.483Z,15.24
2023-04-23T09:08:45.568Z,15.43
2023-04-23T09:11:17.704Z,15.46
2023-04-23T09:13:49.350Z,15.66
2023-04-23T09:16:20.859Z,15.56
2023-04-23T09:18:52.587Z,15.39
2023-04-23T09:21:24.302Z,15.38
2023-04-23T09:23:55.830Z,15.59
2023-04-23T09:26:27.374Z,15.66
2023-04-23T09:28:58.845Z,15.74
2023-04-23T09:31:30.378Z,15.49
2023-04-23T09:34:02.697Z,15.42
2023-04-23T09:36:36.299Z,15.49
2023-04-23T09:39:13.662Z,15.63
2023-04-23T09:41:48.265Z,15.74
2023-04-23T09:44:24.105Z,15.97
2023-04-23T09:46:55.647Z,16.11
2023-04-23T09:49:27.141Z,16.23
2023-04-23T09:52:06.541Z,16.27
2023-04-23T09:54:38.038Z,16.24
2023-04-23T09:57:11.668Z,16.38
2023-04-23T09:59:48.853Z,16.49
2023-04-23T10:02:28.315Z,16.57
2023-04-23T10:05:14.283Z,16.82
2023-04-23T10:07:48.861Z,16.91
2023-04-23T10:10:20.809Z,17.02
2023-04-23T10:12:55.797Z,17.06
2023-04-23T10:15:27.848Z,17.20
2023-04-23T10:17:59.952Z,17.32
2023-04-23T10:20:31.932Z,17.36
2023-04-23T10:23:05.323Z,17.43
2023-04-23T10:25:39.166Z,17.48
2023-04-23T10:28:12.097Z,17.50
2023-04-23T10:30:45.257Z,17.66
2023-04-23T10:33:28.866Z,17.64
2023-04-23T10:36:01.363Z,17.71
2023-04-23T10:38:33.316Z,17.85
2023-04-23T10:41:08.292Z,18.01
2023-04-23T10:43:40.613Z,18.01
2023-04-23T10:46:31.785Z,17.85
2023-04-23T10:49:16.930Z,18.29
2023-04-23T10:54:32.148Z,18.95
2023-04-23T10:57:06.339Z,19.18
2023-04-23T10:59:51.857Z,19.22
2023-04-23T11:02:24.575Z,19.17
2023-04-23T11:04:58.583Z,19.48
2023-04-23T11:07:31.759Z,19.75
2023-04-23T11:10:13.815Z,19.92
2023-04-23T11:12:45.400Z,19.90
2023-04-23T11:15:19.258Z,19.55
2023-04-23T11:17:53.404Z,19.68
2023-04-23T11:20:24.932Z,19.39
2023-04-23T11:22:56.469Z,19.60
2023-04-23T11:25:28.481Z,19.59
2023-04-23T11:28:01.826Z,19.78
2023-04-23T11:30:33.660Z,19.72
2023-04-23T11:33:05.398Z,19.69
2023-04-23T11:35:40.698Z,20.17
2023-04-23T11:38:12.334Z,20.37
2023-04-23T11:40:46.840Z,20.34
2023-04-23T11:43:21.365Z,20.29
2023-04-23T11:45:53.120Z,20.42
2023-04-23T11:48:24.756Z,20.53
2023-04-23T11:50:57.296Z,20.69
2023-04-23T11:53:29.950Z,20.92
2023-04-23T11:56:01.444Z,21.00
2023-04-23T11:58:33.964Z,21.23
2023-04-23T12:01:05.474Z,21.34
2023-04-23T12:03:37.117Z,21.43
2023-04-23T12:06:08.810Z,21.15
2023-04-23T12:08:42.938Z,21.44
2023-04-23T12:11:15.203Z,21.45
2023-04-23T12:13:47.338Z,21.41
2023-04-23T12:16:34.601Z,21.24
2023-04-23T12:19:31.138Z,20.86
2023-04-23T12:22:04.087Z,21.02
2023-04-23T12:24:48.470Z,21.17
2023-04-23T12:27:22.290Z,21.37
2023-04-23T12:30:06.344Z,21.31
2023-04-23T12:32:38.916Z,21.56
2023-04-23T12:35:11.398Z,21.93
2023-04-23T12:37:42.850Z,21.88
2023-04-23T12:40:14.397Z,21.85
2023-04-23T12:42:45.903Z,21.65
2023-04-23T12:45:17.430Z,22.06
2023-04-23T12:47:49.048Z,22.33
2023-04-23T12:50:20.623Z,22.38
2023-04-23T12:52:52.105Z,21.92
2023-04-23T12:55:23.644Z,22.10
2023-04-23T12:57:55.347Z,22.15
2023-04-23T13:00:27.186Z,22.14
2023-04-23T13:02:58.761Z,22.38
2023-04-23T13:05:30.750Z,22.67
2023-04-23T13:08:02.073Z,23.16
2023-04-23T13:10:34.425Z,23.47
2023-04-23T13:13:06.092Z,23.80
2023-04-23T13:15:37.728Z,23.63
2023-04-23T13:18:09.243Z,23.74
2023-04-23T13:20:40.813Z,23.69
2023-04-23T13:23:13.196Z,23.73
2023-04-23T13:25:44.880Z,23.49
2023-04-23T13:28:16.443Z,23.43
2023-04-23T13:30:47.938Z,23.21
2023-04-23T13:33:21.081Z,22.82
2023-04-23T13:35:52.883Z,22.77
2023-04-23T13:38:26.062Z,22.64
2023-04-23T13:40:57.558Z,22.27
2023-04-23T13:43:29.064Z,22.14
2023-04-23T13:46:01.325Z,22.08
2023-04-23T13:48:33.368Z,21.89
2023-04-23T13:51:09.042Z,21.95
2023-04-23T13:53:48.771Z,22.02
2023-04-23T13:56:20.325Z,22.40
2023-04-23T13:58:52.943Z,22.60
2023-04-23T14:01:24.476Z,22.86
2023-04-23T14:03:57.164Z,22.97
2023-04-23T14:06:28.768Z,22.98
2023-04-23T14:09:00.319Z,22.59
2023-04-23T14:11:31.789Z,22.58
2023-04-23T14:14:03.265Z,22.45
2023-04-23T14:16:35.410Z,22.42
2023-04-23T14:19:07.048Z,22.41
2023-04-23T14:21:38.686Z,22.10
2023-04-23T14:24:33.066Z,21.89
2023-04-23T14:27:05.812Z,21.48
2023-04-23T14:29:50.452Z,21.24
2023-04-23T14:32:22.173Z,20.98
2023-04-23T14:34:53.812Z,20.98
2023-04-23T14:37:25.306Z,21.00
2023-04-23T14:39:56.799Z,20.86
2023-04-23T14:42:28.363Z,21.34
2023-04-23T14:45:02.360Z,22.11
2023-04-23T14:47:33.889Z,22.43
2023-04-23T14:50:06.102Z,22.58
2023-04-23T14:52:37.732Z,23.50
2023-04-23T14:55:11.276Z,23.76
2023-04-23T14:57:43.245Z,23.95
2023-04-23T15:00:15.551Z,26.39
2023-04-23T15:02:47.302Z,26.98
2023-04-23T15:05:20.193Z,27.05
2023-04-23T15:07:53.238Z,25.98
2023-04-23T15:10:24.906Z,26.05
2023-04-23T15:13:08.433Z,25.92
2023-04-23T15:15:50.398Z,25.18
2023-04-23T15:18:21.839Z,24.69
2023-04-23T15:20:53.368Z,24.36
2023-04-23T15:23:24.863Z,25.13
2023-04-23T15:25:56.441Z,26.80
2023-04-23T15:28:28.017Z,28.33
2023-04-23T15:30:59.609Z,28.65
2023-04-23T15:33:31.442Z,27.67
2023-04-23T15:36:03.439Z,28.03
2023-04-23T15:38:34.836Z,28.03
2023-04-23T15:41:06.461Z,27.51
2023-04-23T15:43:37.994Z,29.54
2023-04-23T15:46:09.513Z,32.03
2023-04-23T15:48:41.038Z,33.98
2023-04-23T15:51:12.627Z,35.38
2023-04-23T15:53:44.177Z,36.93
2023-04-23T15:56:15.694Z,36.44
2023-04-23T15:58:47.179Z,37.57
2023-04-23T16:01:19.044Z,36.36
2023-04-23T16:04:07.912Z,35.53
2023-04-23T16:06:41.880Z,34.17
2023-04-23T16:09:13.868Z,32.38
2023-04-23T16:11:45.642Z,30.56
2023-04-23T16:14:17.361Z,29.00
2023-04-23T16:16:48.945Z,27.04
2023-04-23T16:19:20.537Z,25.95
2023-04-23T16:21:52.061Z,24.87
2023-04-23T16:24:24.489Z,24.28
2023-04-23T16:26:56.065Z,23.69
2023-04-23T16:29:27.617Z,23.28
2023-04-23T16:31:59.150Z,22.70
2023-04-23T16:34:30.674Z,21.94
2023-04-23T16:37:02.249Z,21.73
2023-04-23T16:39:33.820Z,21.37
2023-04-23T16:42:05.504Z,21.05
2023-04-23T16:44:37.054Z,20.79
2023-04-23T16:47:08.681Z,20.43
2023-04-23T16:49:40.271Z,20.22
2023-04-23T16:52:11.789Z,19.82
2023-04-23T16:54:43.764Z,19.70
2023-04-23T16:57:16.969Z,19.57
2023-04-23T16:59:48.464Z,19.18
2023-04-23T17:02:20.151Z,19.20
2023-04-23T17:04:51.902Z,19.08
2023-04-23T17:07:23.652Z,19.00
2023-04-23T17:09:55.225Z,18.80
2023-04-23T17:12:26.875Z,18.59
2023-04-23T17:14:58.374Z,18.47
2023-04-23T17:17:29.912Z,18.42
2023-04-23T17:20:01.407Z,18.22
2023-04-23T17:22:32.923Z,18.15
2023-04-23T17:25:06.184Z,18.01
2023-04-23T17:27:37.748Z,17.78
2023-04-23T17:30:09.746Z,17.68
2023-04-23T17:32:41.428Z,17.59
2023-04-23T17:35:12.985Z,17.52
2023-04-23T17:37:44.512Z,17.45
2023-04-23T17:40:16.485Z,17.37
2023-04-23T17:42:48.361Z,17.33
2023-04-23T17:45:19.861Z,17.24
2023-04-23T17:47:51.393Z,17.17
2023-04-23T17:50:22.984Z,17.10
2023-04-23T17:52:54.881Z,17.02
2023-04-23T17:55:26.775Z,16.92
2023-04-23T17:58:00.580Z,16.87
2023-04-23T18:00:41.723Z,16.81
2023-04-23T18:03:16.945Z,16.78
2023-04-23T18:05:48.708Z,16.74
2023-04-23T18:08:21.473Z,16.70
2023-04-23T18:10:53.369Z,16.64
2023-04-23T18:13:25.148Z,16.62
2023-04-23T18:15:56.747Z,16.56
2023-04-23T18:18:28.406Z,16.55
2023-04-23T18:21:02.867Z,16.47
2023-04-23T18:23:35.975Z,16.46
2023-04-23T18:26:07.753Z,16.42
2023-04-23T18:28:39.286Z,16.39
2023-04-23T18:31:10.956Z,16.41
2023-04-23T18:33:49.077Z,16.37
2023-04-23T18:36:25.545Z,16.26
2023-04-23T18:38:57.598Z,16.22
2023-04-23T18:41:30.101Z,15.80
2023-04-23T18:44:02.501Z,15.56
2023-04-23T18:46:34.180Z,15.01
2023-04-23T18:49:06.821Z,14.60
2023-04-23T18:51:43.559Z,13.37
2023-04-23T18:54:15.861Z,12.46
2023-04-23T18:56:47.780Z,12.01
2023-04-23T18:59:19.738Z,11.64
2023-04-23T19:01:52.964Z,11.45
2023-04-23T19:04:25.974Z,11.44
2023-04-23T19:06:57.861Z,11.50
2023-04-23T19:09:29.893Z,11.52
2023-04-23T19:12:01.927Z,11.59
2023-04-23T19:14:33.983Z,11.61
2023-04-23T19:17:05.729Z,11.42
2023-04-23T19:19:38.170Z,11.51
2023-04-23T19:22:09.725Z,11.51
2023-04-23T19:24:41.328Z,11.41
2023-04-23T19:27:13.778Z,11.62
2023-04-23T19:29:46.737Z,11.74
2023-04-23T19:32:19.021Z,11.85
2023-04-23T19:34:50.627Z,12.01
2023-04-23T19:37:22.466Z,11.90
2023-04-23T19:39:54.395Z,11.96
2023-04-23T19:42:29.521Z,12.01
2023-04-23T19:45:01.092Z,12.01
2023-04-23T19:47:33.723Z,12.08
2023-04-23T19:50:07.262Z,12.11
2023-04-23T19:52:39.218Z,12.23
2023-04-23T19:55:10.853Z,12.27
2023-04-23T19:57:42.408Z,12.24
2023-04-23T20:00:14.426Z,12.07
2023-04-23T20:02:46.261Z,12.09
2023-04-23T20:05:19.181Z,12.15
2023-04-23T20:07:51.323Z,12.11
2023-04-23T20:10:26.222Z,12.17
2023-04-23T20:12:59.731Z,12.18
2023-04-23T20:15:32.474Z,12.08
2023-04-23T20:18:06.031Z,11.95
2023-04-23T20:20:39.834Z,11.99
2023-04-23T20:23:11.395Z,11.83
2023-04-23T20:25:43.221Z,11.82
2023-04-23T20:28:15.345Z,11.71
2023-04-23T20:30:47.028Z,11.83
2023-04-23T20:33:20.244Z,11.93
2023-04-23T20:35:52.332Z,12.01
2023-04-23T20:38:27.363Z,12.08
2023-04-23T20:41:02.532Z,12.18
2023-04-23T20:43:35.959Z,12.15
2023-04-23T20:46:09.274Z,12.23
2023-04-23T20:48:43.371Z,12.29
2023-04-23T20:51:15.753Z,12.38
2023-04-23T20:53:47.469Z,12.45
2023-04-23T20:56:20.299Z,12.50
2023-04-23T20:58:52.932Z,12.49
2023-04-23T21:01:29.864Z,12.48
2023-04-23T21:04:02.112Z,12.46
2023-04-23T21:06:34.000Z,12.45
2023-04-23T21:09:05.687Z,12.39
2023-04-23T21:11:37.498Z,12.27
2023-04-23T21:14:09.167Z,12.25
2023-04-23T21:16:40.780Z,12.26
2023-04-23T21:19:12.386Z,12.24
2023-04-23T21:21:43.901Z,12.23
2023-04-23T21:24:15.572Z,12.27
2023-04-23T21:26:47.186Z,12.24
2023-04-23T21:29:18.884Z,12.15
2023-04-23T21:31:52.206Z,11.97
2023-04-23T21:34:23.826Z,11.84
2023-04-23T21:36:55.688Z,11.78
2023-04-23T21:39:27.314Z,11.83
2023-04-23T21:41:59.150Z,11.79
2023-04-23T21:44:31.800Z,11.86
2023-04-23T21:47:04.075Z,11.88
2023-04-23T21:49:37.141Z,11.85
2023-04-23T21:52:08.919Z,11.70
2023-04-23T21:54:40.606Z,11.53
2023-04-23T21:57:12.309Z,11.50
2023-04-23T21:59:44.428Z,11.57
2023-04-23T22:02:16.197Z,11.49
2023-04-23T22:04:48.195Z,11.35
2023-04-23T22:07:20.826Z,11.49
2023-04-23T22:09:52.850Z,11.47
2023-04-23T22:12:24.462Z,11.53
2023-04-23T22:14:56.073Z,11.56
2023-04-23T22:17:30.545Z,11.66
2023-04-23T22:20:06.000Z,11.65
2023-04-23T22:22:38.740Z,11.67
2023-04-23T22:25:11.446Z,11.58
2023-04-23T22:27:44.643Z,11.46
2023-04-23T22:30:16.279Z,11.43
2023-04-23T22:32:47.987Z,11.46
2023-04-23T22:35:19.632Z,11.37
2023-04-23T22:37:51.458Z,11.30
2023-04-23T22:40:23.060Z,11.27
2023-04-23T22:42:55.708Z,11.25
2023-04-23T22:45:27.307Z,11.27
2023-04-23T22:47:59.107Z,11.19
2023-04-23T22:50:30.880Z,11.13
2023-04-23T22:53:04.881Z,11.12
2023-04-23T22:55:36.485Z,11.03
2023-04-23T22:58:09.489Z,10.89
2023-04-23T23:00:41.692Z,10.78
2023-04-23T23:03:13.385Z,10.82
2023-04-23T23:05:45.078Z,10.71
2023-04-23T23:08:16.909Z,10.70
2023-04-23T23:10:49.749Z,10.83
2023-04-23T23:13:21.265Z,10.79
2023-04-23T23:15:52.860Z,10.77
2023-04-23T23:18:24.449Z,10.82
2023-04-23T23:20:56.085Z,10.81
2023-04-23T23:23:27.631Z,10.62
2023-04-23T23:26:02.063Z,10.75
2023-04-23T23:28:35.180Z,10.82
2023-04-23T23:31:07.409Z,10.74
2023-04-23T23:33:39.634Z,10.75
2023-04-23T23:36:11.950Z,10.72
2023-04-23T23:38:43.363Z,10.83
2023-04-23T23:41:15.002Z,10.91
2023-04-23T23:43:46.536Z,11.01
2023-04-23T23:46:19.944Z,11.05
2023-04-23T23:48:51.680Z,11.11
2023-04-23T23:51:23.367Z,11.15
2023-04-23T23:53:55.051Z,11.21
2023-04-23T23:56:26.702Z,11.21
2023-04-23T23:58:58.236Z,11.25
